• Join FlightAware (Why Join?)
  • Login
  • US Flag 
04:47PM EST


 

Airport Tracker/Info


-or-


 

Live Flight TrackerFlight Track Log ✈ AWE1600 ✈ 18-Apr-2013 ✈ KPHL - KDTW

Flight Track Log - Related Links

Times and Time Zones

All times are in EDT time to prevent confusion due to time zone crossing. See the AWE1600 flight status page for this flight to view local times or setup timezone preferences in your user account.

Time Position Orientation Groundspeed Altitude Reporting Facility
EDT Latitude Longitude Course Direction KTS MPH feet Rate Location/Type
09:28AM 39.8833 -75.2167 270° West 142 163 700  Level Philadelphia TRACON
09:28AM 39.8794 -75.2111 132° Southeast 153 176 1,400 2,220 Climbing FAA TRACON SMA TRACON (SMA)
09:28AM 39.8861 -75.1931 64° Northeast 165 190 2,000 1,800 Climbing FAA TRACON SMA TRACON (SMA)
09:29AM 39.8947 -75.1719 62° Northeast 210 242 2,600 1,920 Climbing FAA TRACON SMA TRACON (SMA)
09:29AM 39.9058 -75.1425 64° Northeast 248 285 3,300 2,460 Climbing FAA TRACON SMA TRACON (SMA)
09:29AM 39.9172 -75.1161 61° Northeast 279 321 4,200 2,520 Climbing FAA TRACON SMA TRACON (SMA)
09:30AM 39.9054 -75.6217 288° West  Level FlightAware Approximate
09:30AM 39.9367 -75.0983 35° Northeast 293 337 5,000  Level FAA TRACON SMA TRACON (SMA)
09:30AM 39.9614 -75.0992 359° North 290 334 6,500 4,500 Climbing FAA TRACON SMA TRACON (SMA)
09:30AM 39.9828 -75.1236 319° Northwest 279 321 8,000 3,780 Climbing FAA TRACON SMA TRACON (SMA)
09:31AM 39.9025 -75.7516 258° West  Level FlightAware Approximate
09:31AM 39.9867 -75.1514 280° West 262 302 9,100  Level FAA TRACON SMA TRACON (SMA)
09:31AM 39.9831 -75.1861 262° West 273 314 9,900 1,200 Climbing FAA TRACON SMA TRACON (SMA)
09:31AM 39.9783 -75.2222 260° West 295 339 9,900 120 Level FAA TRACON SMA TRACON (SMA)
09:32AM 39.9001 -75.8854 270° West  Level FlightAware Approximate
09:32AM 39.9736 -75.2614 261° West 298 343 10,000  Level FAA TRACON SMA TRACON (SMA)
09:32AM 39.9644 -75.3275 260° West 300 345 10,000  Level FAA TRACON SMA TRACON (SMA)
09:33AM 39.9000 -76.0196 270° West  Level FlightAware Approximate
09:33AM 39.9597 -75.3683 261° West 299 344 10,000  Level FAA TRACON SMA TRACON (SMA)
09:33AM 39.9547 -75.4008 259° West 300 345 10,000 120 Level FAA TRACON SMA TRACON (SMA)
09:33AM 39.9506 -75.4336 261° West 298 343 10,100 1,020 Climbing FAA TRACON SMA TRACON (SMA)
09:34AM 39.9447 -75.4753 260° West 306 352 10,700 1,320 Climbing FAA TRACON SMA TRACON (SMA)
09:34AM 39.9447 -75.5119 270° West 314 361 11,000 420 Climbing FAA TRACON SMA TRACON (SMA)
09:34AM 39.9481 -75.5464 277° West 318 366 11,000 300 Level FAA TRACON SMA TRACON (SMA)
09:35AM 39.9503 -75.5892 274° West 323 372 11,200 1,200 Climbing FAA TRACON SMA TRACON (SMA)
09:35AM 39.9531 -75.6283 275° West 345 397 11,800 2,340 Climbing FAA TRACON SMA TRACON (SMA)
09:35AM 39.9561 -75.6703 275° West 355 409 12,800 2,520 Climbing FAA TRACON SMA TRACON (SMA)
09:36AM 39.9597 -75.7192 276° West 364 419 13,500 2,220 Climbing FAA TRACON SMA TRACON (SMA)
09:36AM 39.9631 -75.7622 276° West 373 429 14,300 2,520 Climbing FAA TRACON SMA TRACON (SMA)
09:36AM 39.9667 -75.8067 276° West 387 445 15,200 2,700 Climbing FAA TRACON SMA TRACON (SMA)
09:37AM 39.9711 -75.8586 276° West 393 452 16,100 2,400 Climbing FAA TRACON SMA TRACON (SMA)
09:37AM 39.9742 -75.9056 275° West 396 456 16,800 2,400 Climbing FAA TRACON SMA TRACON (SMA)
09:37AM 39.9778 -75.9506 276° West 402 463 17,700 1,920 Climbing FAA TRACON SMA TRACON (SMA)
09:38AM 39.9794 -75.9844 274° West 404 465 18,100 1,740 Climbing FAA TRACON SMA TRACON (SMA)
09:39AM 39.9653 -76.2069 265° West 416 479 21,000 2,040 Climbing New York Center
09:40AM 39.9525 -76.3900 265° West 430 495 23,400 1,980 Climbing New York Center
09:41AM 39.9406 -76.5489 264° West 441 507 25,000 1,500 Climbing New York Center
09:42AM 39.9325 -76.7133 266° West 446 513 26,400 1,140 Climbing New York Center
09:43AM 39.9617 -76.8783 283° West 451 519 27,400 1,080 Climbing New York Center
09:44AM 39.9922 -77.0492 283° West 472 543 28,600 1,620 Climbing New York Center
09:45AM 40.0061 -77.2183 276° West 478 550 30,700 1,920 Climbing New York Center
09:47AM 39.9792 -77.5647 264° West 462 532 34,900 1,740 Climbing Cleveland Center
09:48AM 39.9853 -77.7244 273° West 452 520 36,400 1,200 Climbing Cleveland Center
09:49AM 39.9914 -77.8842 273° West 441 507 37,400 780 Climbing Cleveland Center
09:50AM 40.0117 -78.0406 280° West 441 507 38,000 300 Climbing Cleveland Center
09:51AM 40.0317 -78.1969 280° West 441 507 38,000  Level Cleveland Center
09:52AM 40.0478 -78.3728 277° West 441 507 38,000 -240 Level Cleveland Center
09:53AM 40.0694 -78.5294 280° West 441 507 37,600 -540 Descending Cleveland Center
09:54AM 40.1097 -78.6775 290° West 441 507 37,000 -300 Descending Cleveland Center
09:55AM 40.1517 -78.8311 290° West 441 507 37,000  Level Cleveland Center
09:56AM 40.1956 -78.9794 291° West 446 513 37,000 -300 Level Cleveland Center
09:57AM 40.2372 -79.1308 290° West 446 513 36,400 -840 Descending Cleveland Center
09:58AM 40.2786 -79.2822 290° West 446 513 35,400 -960 Descending Cleveland Center
09:59AM 40.3219 -79.4339 291° West 446 513 34,500 -960 Descending Cleveland Center
10:00AM 40.3631 -79.5803 290° West 441 507 33,500 -1,020 Descending Cleveland Center
10:01AM 40.4036 -79.7242 290° West 441 507 32,500 -780 Descending Cleveland Center
10:02AM 40.4422 -79.8739 289° West 430 495 32,000 -300 Descending Cleveland Center
10:03AM 40.4806 -80.0208 289° West 430 495 32,000  Level Cleveland Center
10:04AM 40.5189 -80.1706 289° West 430 495 32,000  Level Cleveland Center
10:05AM 40.5589 -80.3181 290° West 430 495 32,000 -300 Level Cleveland Center
10:06AM 40.5986 -80.4492 292° West 430 495 31,400 -900 Descending Cleveland Center
10:07AM 40.6383 -80.6158 287° West 430 495 30,300 -720 Descending Cleveland Center
10:08AM 40.6819 -80.7447 294° West 430 495 30,000 -180 Descending Cleveland Center
10:09AM 40.7442 -80.8817 301° West 435 501 30,000  Level Cleveland Center
10:10AM 40.8125 -81.0194 303° West 440 506 30,000  Level Cleveland Center
10:11AM 40.8744 -81.1569 301° West 446 513 30,000  Level Cleveland Center
10:12AM 40.9425 -81.2950 303° West 446 513 30,000  Level Cleveland Center
10:13AM 41.0083 -81.4333 302° West 446 513 30,000  Level Cleveland Center
10:14AM 41.0739 -81.5719 302° West 446 513 30,000 -360 Level Cleveland Center
10:15AM 41.1497 -81.7053 307° West 451 519 29,300 -900 Descending Cleveland Center
10:16AM 41.2256 -81.8419 306° West 456 525 28,300 -1,680 Descending Cleveland Center
10:17AM 41.2969 -81.9761 305° West 461 531 26,000 -2,640 Descending Cleveland Center
10:18AM 41.3722 -82.1217 305° West 448 516 23,100 -2,520 Descending Cleveland Center
10:19AM 41.4392 -82.2478 305° West 434 499 21,000 -1,980 Descending Cleveland Center
10:20AM 41.4981 -82.3547 306° West 421 484 19,200 -1,860 Descending Cleveland Center
10:21AM 41.5589 -82.4672 306° West 392 451 17,300 -2,100 Descending Cleveland Center
10:22AM 41.6011 -82.5464 306° West 373 429 15,800 -1,920 Descending Cleveland Center
10:22AM 41.6172 -82.5803 302° West 379 436 15,400 -1,920 Descending Cleveland Center
10:23AM 41.6597 -82.6567 307° West 367 422 13,900 -2,340 Descending Cleveland Center
10:23AM 41.6819 -82.7017 303° West 367 422 13,100 -1,860 Descending Cleveland Center
10:24AM 41.7161 -82.7642 306° West 361 415 12,200 -1,140 Descending Cleveland Center
10:24AM 41.7444 -82.8067 312° West 367 422 12,000 -180 Descending Cleveland Center
10:25AM 41.8200 -82.8958 319° Northwest 355 409 12,000  Level Cleveland Center
10:26AM 41.8728 -82.9592 318° Northwest 363 418 12,100  Climbing Cleveland Center
10:26AM 41.8931 -82.9822 320° Northwest 355 409 12,000  Descending Cleveland Center
10:27AM 41.9603 -83.0628 318° Northwest 365 420 12,100  Climbing Cleveland Center
10:28AM 42.0272 -83.1436 318° Northwest 340 391 12,100 -120 Level Cleveland Center
10:28AM 42.0414 -83.1611 317° Northwest 353 406 12,000 -120 Descending Cleveland Center
10:29AM 42.0781 -83.2044 319° Northwest 282 325 12,000 -120 Level Cleveland Center
10:29AM 42.1006 -83.2250 326° Northwest 315 362 11,900 -1,200 Descending Cleveland Center
10:30AM 42.1650 -83.2306 356° North 296 341 10,700 -1,620 Descending Cleveland Center
10:30AM 42.1817 -83.2256 13° North 261 300 10,300 -1,680 Descending Cleveland Center
10:31AM 42.2389 -83.1914 24° Northeast 298 343 9,000 -1,680 Descending Cleveland Center
10:32AM 42.3150 -83.1442 25° Northeast 295 339 7,400 -1,740 Descending Cleveland Center
10:33AM 42.3769 -83.1633 347° North 186 214 5,300 -1,980 Descending Cleveland Center
10:34AM 42.3633 -83.2219 253° West 152 175 3,300 -1,140 Descending Cleveland Center
10:35AM 42.3333 -83.2517 216° Southwest 131 151 3,000 -420 Descending Cleveland Center
10:36AM 42.3036 -83.2728 208° Southwest 130 150 2,500 -600 Descending Cleveland Center